Time;durP1;ratioP1;P1;durP2;ratioP2;P2;SDS_P1;SDS_P2;PMS_P1;PMS_P2;Temp;Humidity;BMP_temperature;BMP_pressure;BME280_temperature;BME280_humidity;BME280_pressure;Samples;Min_cycle;Max_cycle;Signal;HPM_P1;HPM_P2
2022/01/30 00:00:54;;;;;;;9.33;3.40;;;8.10;99.90;;;;;;5006174;28;20208;-75
2022/01/30 00:03:40;;;;;;;15.50;4.00;;;8.10;99.90;;;;;;4977003;28;20208;-75
2022/01/30 00:06:07;;;;;;;12.50;3.60;;;8.00;99.90;;;;;;4993943;28;20207;-75
2022/01/30 00:08:34;;;;;;;17.30;3.60;;;8.00;99.90;;;;;;4990784;28;20274;-75
2022/01/30 00:11:10;;;;;;;15.87;3.37;;;8.00;99.90;;;;;;4979472;28;20208;-75
2022/01/30 00:13:37;;;;;;;16.73;4.20;;;8.00;99.90;;;;;;5008177;28;20199;-75
2022/01/30 00:16:14;;;;;;;15.70;4.00;;;7.90;99.90;;;;;;4994099;28;20231;-75
2022/01/30 00:18:53;;;;;;;13.20;3.70;;;7.90;99.90;;;;;;4990578;28;20220;-75
2022/01/30 00:21:32;;;;;;;16.27;4.33;;;7.90;99.90;;;;;;4988060;28;20211;-74
2022/01/30 00:24:04;;;;;;;8.97;2.80;;;7.90;99.90;;;;;;4994174;28;20571;-75
2022/01/30 00:26:34;;;;;;;16.80;4.40;;;7.90;99.90;;;;;;4993687;28;20200;-75
2022/01/30 00:29:02;;;;;;;16.97;4.33;;;7.90;99.90;;;;;;4991525;28;20242;-75
2022/01/30 00:31:32;;;;;;;13.17;3.17;;;7.90;99.90;;;;;;4992619;28;20211;-75
2022/01/30 00:33:59;;;;;;;19.07;3.60;;;7.80;99.90;;;;;;4984526;28;20220;-74
2022/01/30 00:36:29;;;;;;;14.70;4.23;;;7.80;99.90;;;;;;4989585;28;20227;-75
2022/01/30 00:38:56;;;;;;;13.97;4.07;;;7.80;99.90;;;;;;4995111;28;20231;-75
2022/01/30 00:41:24;;;;;;;19.67;4.70;;;7.70;99.90;;;;;;4989822;28;20206;-75
2022/01/30 00:43:51;;;;;;;17.50;4.10;;;7.80;99.90;;;;;;4986312;28;20211;-75
2022/01/30 00:46:18;;;;;;;14.67;4.60;;;7.70;99.90;;;;;;4994667;28;20188;-74
2022/01/30 00:48:47;;;;;;;10.97;3.73;;;7.70;99.90;;;;;;4991933;28;20231;-75
2022/01/30 00:51:16;;;;;;;18.10;3.90;;;7.70;99.90;;;;;;4991323;28;20210;-75
2022/01/30 00:53:44;;;;;;;13.73;3.70;;;7.60;99.90;;;;;;4993251;28;20208;-75
2022/01/30 00:56:11;;;;;;;13.57;3.93;;;7.60;99.90;;;;;;5005055;28;20224;-75
2022/01/30 00:58:39;;;;;;;15.37;3.70;;;7.60;99.90;;;;;;4989831;28;20227;-75
2022/01/30 01:01:07;;;;;;;18.37;3.80;;;7.50;99.90;;;;;;4983433;28;20203;-74
2022/01/30 01:03:34;;;;;;;15.33;3.93;;;7.50;99.90;;;;;;4990248;28;20200;-75
2022/01/30 01:06:05;;;;;;;17.83;4.60;;;7.50;99.90;;;;;;4993952;28;20200;-75
2022/01/30 01:08:36;;;;;;;17.97;4.57;;;7.50;99.90;;;;;;4989881;28;20561;-74
2022/01/30 01:11:25;;;;;;;11.37;3.57;;;7.50;99.90;;;;;;4992738;28;20204;-74
2022/01/30 01:14:17;;;;;;;11.43;3.80;;;7.50;99.90;;;;;;4984304;28;20533;-74
2022/01/30 01:25:39;;;;;;;13.27;4.47;;;7.40;99.90;;;;;;4993688;28;20634;-74
2022/01/30 01:28:06;;;;;;;15.97;4.33;;;7.40;99.90;;;;;;4990590;28;20204;-74
2022/01/30 01:30:34;;;;;;;14.73;4.27;;;7.50;99.90;;;;;;4989244;28;20224;-74
2022/01/30 01:33:03;;;;;;;18.40;3.90;;;7.50;99.90;;;;;;4987400;28;20650;-74
2022/01/30 01:35:30;;;;;;;13.43;4.40;;;7.40;99.90;;;;;;4991671;28;20216;-74
2022/01/30 01:37:59;;;;;;;16.73;4.90;;;7.50;99.90;;;;;;4980974;28;20212;-74
2022/01/30 01:40:27;;;;;;;14.40;4.00;;;7.50;99.90;;;;;;5004020;28;20242;-74
2022/01/30 01:42:55;;;;;;;17.90;4.97;;;7.40;99.90;;;;;;4986697;28;20219;-74
2022/01/30 01:45:23;;;;;;;18.37;4.43;;;7.50;99.90;;;;;;4997317;28;20199;-74
2022/01/30 01:47:51;;;;;;;16.00;4.37;;;7.40;99.90;;;;;;5002371;28;20194;-74
2022/01/30 01:50:38;;;;;;;16.17;4.33;;;7.40;99.90;;;;;;4990977;28;20231;-74
2022/01/30 01:53:09;;;;;;;15.90;3.90;;;7.40;99.90;;;;;;5006583;28;20192;-74
2022/01/30 01:55:37;;;;;;;16.87;3.87;;;7.30;99.90;;;;;;4989183;28;20228;-74
2022/01/30 01:58:05;;;;;;;14.77;3.97;;;7.30;99.90;;;;;;4987999;28;20201;-74
2022/01/30 02:01:01;;;;;;;19.03;4.63;;;7.30;99.90;;;;;;4988308;28;20198;-74
2022/01/30 02:03:28;;;;;;;15.73;3.90;;;7.30;99.90;;;;;;5000646;28;20194;-74
2022/01/30 02:05:59;;;;;;;16.20;4.10;;;7.30;99.90;;;;;;4993621;28;20207;-74
2022/01/30 02:08:33;;;;;;;17.93;5.37;;;7.30;99.90;;;;;;4993252;28;20209;-74
2022/01/30 02:11:04;;;;;;;16.83;3.90;;;7.30;99.90;;;;;;4992308;28;20207;-74
2022/01/30 02:13:49;;;;;;;17.00;4.87;;;7.30;99.90;;;;;;4988103;28;20200;-74
2022/01/30 02:24:51;;;;;;;17.63;4.33;;;7.20;99.90;;;;;;4982994;28;20201;-75
2022/01/30 02:27:22;;;;;;;19.53;4.40;;;7.20;99.90;;;;;;5005335;28;20203;-74
2022/01/30 02:29:50;;;;;;;18.97;5.00;;;7.20;99.90;;;;;;5011310;28;20226;-74
2022/01/30 02:32:17;;;;;;;19.50;5.00;;;7.20;99.90;;;;;;4995393;28;20215;-74
2022/01/30 02:34:51;;;;;;;18.47;4.90;;;7.30;99.90;;;;;;4994771;28;20207;-74
2022/01/30 02:37:19;;;;;;;20.93;4.80;;;7.20;99.90;;;;;;4994846;28;20214;-76
2022/01/30 02:39:47;;;;;;;15.80;4.40;;;7.20;99.90;;;;;;4987567;28;20232;-76
2022/01/30 02:42:19;;;;;;;17.40;4.27;;;7.10;99.90;;;;;;4987733;28;20212;-75
2022/01/30 02:44:52;;;;;;;17.00;5.17;;;7.10;99.90;;;;;;4994014;28;20685;-76
2022/01/30 02:47:36;;;;;;;22.80;4.70;;;7.10;99.90;;;;;;4980485;28;20208;-76
2022/01/30 02:50:38;;;;;;;18.57;4.63;;;7.00;99.90;;;;;;5003856;28;20220;-76
2022/01/30 02:53:09;;;;;;;21.47;4.77;;;7.00;99.90;;;;;;4989712;28;20195;-76
2022/01/30 02:55:38;;;;;;;18.63;5.80;;;6.90;99.90;;;;;;4986106;28;20199;-76
2022/01/30 02:58:05;;;;;;;17.23;4.40;;;6.90;99.90;;;;;;4993837;28;20197;-76
2022/01/30 03:00:33;;;;;;;20.13;4.30;;;6.90;99.90;;;;;;4993942;28;20216;-76
2022/01/30 03:03:01;;;;;;;17.43;5.33;;;6.90;99.90;;;;;;4988139;28;20211;-76
2022/01/30 03:05:28;;;;;;;20.10;5.70;;;6.80;99.90;;;;;;5000005;28;20220;-76
2022/01/30 03:07:56;;;;;;;20.50;5.73;;;6.80;99.90;;;;;;4991109;28;20196;-76
2022/01/30 03:10:24;;;;;;;15.70;5.27;;;6.80;99.90;;;;;;4975327;28;20220;-76
2022/01/30 03:12:52;;;;;;;25.33;5.50;;;6.70;99.90;;;;;;4993774;28;20210;-76
2022/01/30 03:15:20;;;;;;;16.97;5.17;;;6.80;99.90;;;;;;4979932;28;20196;-76
2022/01/30 03:17:48;;;;;;;19.63;5.60;;;6.80;99.90;;;;;;4986053;28;20227;-76
2022/01/30 03:20:15;;;;;;;20.90;4.67;;;6.90;99.90;;;;;;5008455;28;20228;-76
2022/01/30 03:22:42;;;;;;;21.17;5.00;;;6.90;99.90;;;;;;4999292;28;20199;-76
2022/01/30 03:25:10;;;;;;;24.27;5.07;;;6.80;99.90;;;;;;4996376;28;20200;-76
2022/01/30 03:28:05;;;;;;;15.63;5.00;;;6.80;99.90;;;;;;4986435;28;20203;-76
2022/01/30 03:30:38;;;;;;;28.27;5.30;;;6.80;99.90;;;;;;4991348;28;20238;-75
2022/01/30 03:33:26;;;;;;;22.97;5.20;;;6.70;99.90;;;;;;4994833;28;20199;-75
2022/01/30 03:35:54;;;;;;;16.53;4.77;;;6.80;99.90;;;;;;4991131;28;20199;-76
2022/01/30 03:38:24;;;;;;;20.63;5.10;;;6.70;99.90;;;;;;4991907;28;20200;-76
2022/01/30 03:40:53;;;;;;;16.87;4.13;;;6.80;99.90;;;;;;4991614;28;20580;-75
2022/01/30 03:43:22;;;;;;;12.63;4.40;;;6.70;99.90;;;;;;4989297;28;20215;-75
2022/01/30 03:45:50;;;;;;;17.87;5.13;;;6.70;99.90;;;;;;4991305;28;20279;-75
2022/01/30 03:48:18;;;;;;;16.13;4.80;;;6.60;99.90;;;;;;4989865;28;20409;-75
2022/01/30 03:51:05;;;;;;;22.83;4.67;;;6.70;99.90;;;;;;4990822;28;20192;-75
2022/01/30 03:53:33;;;;;;;14.73;4.43;;;6.60;99.90;;;;;;5002602;28;20203;-76
2022/01/30 03:56:01;;;;;;;23.77;5.90;;;6.70;99.90;;;;;;4990088;28;20204;-76
2022/01/30 03:58:34;;;;;;;20.40;5.27;;;6.70;99.90;;;;;;5004028;28;20203;-75
2022/01/30 04:01:08;;;;;;;20.80;5.00;;;6.70;99.90;;;;;;4991671;28;20219;-76
2022/01/30 04:03:36;;;;;;;16.53;4.73;;;6.70;99.90;;;;;;5002162;28;20203;-76
2022/01/30 04:06:05;;;;;;;19.60;5.40;;;6.60;99.90;;;;;;4990026;28;20204;-75
2022/01/30 04:08:33;;;;;;;18.27;4.87;;;6.60;99.90;;;;;;4987968;28;20682;-75
2022/01/30 04:11:14;;;;;;;16.97;5.03;;;6.70;99.90;;;;;;4988973;28;20206;-76
2022/01/30 04:13:53;;;;;;;20.13;4.53;;;6.70;99.90;;;;;;4986063;28;20191;-76
2022/01/30 04:16:52;;;;;;;16.30;4.87;;;6.70;99.90;;;;;;4993383;28;20217;-76
2022/01/30 04:19:39;;;;;;;22.50;5.30;;;6.60;99.90;;;;;;4993476;28;20223;-76
2022/01/30 04:22:12;;;;;;;20.77;4.80;;;6.70;99.90;;;;;;4993034;28;20207;-75
2022/01/30 04:25:37;;;;;;;18.17;4.83;;;6.60;99.90;;;;;;4992873;28;20220;-76
2022/01/30 04:28:28;;;;;;;16.63;4.33;;;6.60;99.90;;;;;;4987249;28;20201;-75
2022/01/30 04:31:10;;;;;;;20.00;5.57;;;6.50;99.90;;;;;;4989193;28;20207;-75
2022/01/30 04:33:53;;;;;;;16.67;4.47;;;6.60;99.90;;;;;;4981386;28;20211;-76
2022/01/30 04:36:57;;;;;;;20.07;5.53;;;6.60;99.90;;;;;;5004122;28;20225;-76
2022/01/30 04:40:12;;;;;;;18.30;4.93;;;6.60;99.90;;;;;;4991678;28;20235;-76
2022/01/30 04:52:46;;;;;;;16.20;4.53;;;6.60;99.90;;;;;;4977814;28;20202;-76
2022/01/30 04:58:35;;;;;;;16.93;4.27;;;6.60;99.90;;;;;;4986812;28;20292;-75
2022/01/30 05:01:52;;;;;;;13.70;4.30;;;6.50;99.90;;;;;;4999210;28;20204;-75
2022/01/30 05:04:48;;;;;;;16.97;5.37;;;6.50;99.90;;;;;;5007300;28;20206;-76
2022/01/30 05:07:29;;;;;;;18.77;4.30;;;6.50;99.90;;;;;;4992293;28;20557;-75
2022/01/30 05:09:57;;;;;;;24.17;4.80;;;6.50;99.90;;;;;;4994065;28;20225;-76
2022/01/30 05:13:09;;;;;;;20.40;4.90;;;6.50;99.90;;;;;;4988497;28;20203;-75
2022/01/30 05:15:49;;;;;;;14.13;4.10;;;6.40;99.90;;;;;;4998059;28;20199;-75
2022/01/30 05:18:40;;;;;;;15.00;4.73;;;6.40;99.90;;;;;;4994102;28;20207;-76
2022/01/30 05:21:29;;;;;;;17.07;4.80;;;6.40;99.90;;;;;;4997142;28;20206;-75
2022/01/30 05:24:02;;;;;;;16.67;4.50;;;6.40;99.90;;;;;;4991522;28;20211;-76
2022/01/30 05:26:52;;;;;;;18.47;4.77;;;6.50;99.90;;;;;;4986933;28;20206;-76
2022/01/30 05:29:43;;;;;;;18.83;4.60;;;6.50;99.90;;;;;;4987514;28;20223;-75
2022/01/30 05:32:37;;;;;;;17.40;4.00;;;6.50;99.90;;;;;;4992298;28;20214;-76
2022/01/30 05:35:27;;;;;;;10.97;3.30;;;6.40;99.90;;;;;;4996437;28;20209;-76
2022/01/30 05:38:06;;;;;;;18.03;3.83;;;6.40;99.90;;;;;;4991558;28;20220;-76
2022/01/30 05:41:12;;;;;;;14.97;3.97;;;6.40;99.90;;;;;;4993143;28;20197;-76
2022/01/30 05:44:08;;;;;;;13.47;3.17;;;6.50;99.90;;;;;;4983888;28;20203;-76
2022/01/30 05:46:56;;;;;;;18.57;3.57;;;6.50;99.90;;;;;;4992840;28;20198;-75
2022/01/30 05:49:56;;;;;;;17.40;4.00;;;6.50;99.90;;;;;;4988040;28;20238;-76
2022/01/30 05:52:54;;;;;;;13.00;3.57;;;6.40;99.90;;;;;;4988333;28;20202;-75
2022/01/30 05:55:39;;;;;;;13.57;3.67;;;6.30;99.90;;;;;;4989590;28;20560;-75
2022/01/30 05:58:20;;;;;;;10.43;3.07;;;6.40;99.90;;;;;;4996571;28;20218;-76
2022/01/30 06:00:56;;;;;;;16.73;3.83;;;6.40;99.90;;;;;;4987925;28;20202;-76
2022/01/30 06:03:23;;;;;;;17.93;4.10;;;6.40;99.90;;;;;;4985648;28;20214;-76
2022/01/30 06:05:51;;;;;;;11.93;3.27;;;6.40;99.90;;;;;;4983554;28;20217;-76
2022/01/30 06:08:39;;;;;;;11.43;3.83;;;6.40;99.90;;;;;;4986738;28;20192;-76
2022/01/30 06:11:06;;;;;;;12.50;3.10;;;6.40;99.90;;;;;;4985052;28;20200;-76
2022/01/30 06:14:01;;;;;;;17.03;3.47;;;6.40;99.90;;;;;;4992325;28;20219;-76
2022/01/30 06:16:29;;;;;;;12.87;4.20;;;6.30;99.90;;;;;;4991216;28;20210;-76
2022/01/30 06:18:56;;;;;;;16.00;3.73;;;6.30;99.90;;;;;;4990796;28;20226;-76
2022/01/30 06:21:42;;;;;;;15.57;3.63;;;6.30;99.90;;;;;;4998848;28;20914;-76
2022/01/30 06:24:32;;;;;;;14.13;3.50;;;6.30;99.90;;;;;;4995929;28;20203;-76
2022/01/30 06:27:27;;;;;;;12.40;3.10;;;8.00;99.90;;;;;;4979573;28;20234;-75
2022/01/30 06:30:14;;;;;;;11.60;3.50;;;8.30;99.90;;;;;;4988384;28;20224;-76
2022/01/30 06:33:02;;;;;;;15.20;4.83;;;7.30;99.90;;;;;;4986201;28;20208;-75
2022/01/30 06:36:19;;;;;;;10.23;3.60;;;6.80;99.90;;;;;;4990275;28;20228;-75
2022/01/30 06:39:10;;;;;;;24.63;4.53;;;6.60;99.90;;;;;;4985363;28;20226;-75
2022/01/30 06:41:59;;;;;;;14.77;3.37;;;6.50;99.90;;;;;;4986831;28;20219;-74
2022/01/30 06:44:45;;;;;;;17.17;4.07;;;6.40;99.90;;;;;;4995144;28;20684;-74
2022/01/30 06:47:52;;;;;;;14.30;3.80;;;6.30;99.90;;;;;;4968431;28;20806;-74
2022/01/30 06:50:45;;;;;;;17.03;3.97;;;6.40;99.90;;;;;;4961600;28;20586;-75
2022/01/30 06:53:31;;;;;;;14.77;3.77;;;6.20;99.90;;;;;;4990781;28;20217;-75
2022/01/30 06:56:35;;;;;;;15.03;4.40;;;6.20;99.90;;;;;;4987943;28;20211;-74
2022/01/30 06:59:23;;;;;;;17.00;4.57;;;6.20;99.90;;;;;;4983899;28;20242;-74
2022/01/30 07:02:10;;;;;;;12.93;3.77;;;6.10;99.90;;;;;;4997170;28;20206;-74
2022/01/30 07:05:04;;;;;;;14.27;3.83;;;6.10;99.90;;;;;;4980574;28;20203;-74
2022/01/30 07:07:57;;;;;;;20.30;5.37;;;6.00;99.90;;;;;;4991814;28;20203;-74
2022/01/30 07:10:25;;;;;;;12.87;3.80;;;6.20;99.90;;;;;;4996086;28;20229;-74
2022/01/30 07:13:08;;;;;;;13.53;3.67;;;6.10;99.90;;;;;;4994859;28;20217;-74
2022/01/30 07:15:41;;;;;;;13.93;3.37;;;6.10;99.90;;;;;;4994793;28;20201;-74
2022/01/30 07:18:18;;;;;;;17.67;4.07;;;6.10;99.90;;;;;;4992504;28;20214;-74
2022/01/30 07:20:58;;;;;;;22.27;5.10;;;6.10;99.90;;;;;;4988810;28;20234;-74
2022/01/30 07:23:26;;;;;;;19.03;4.60;;;6.10;99.90;;;;;;4987333;28;20204;-74
2022/01/30 07:25:53;;;;;;;15.37;4.03;;;6.00;99.90;;;;;;4979352;28;20210;-74
2022/01/30 07:28:21;;;;;;;13.93;3.67;;;6.10;99.90;;;;;;4988181;28;20218;-74
2022/01/30 07:30:50;;;;;;;15.20;4.47;;;6.10;99.90;;;;;;4992426;28;20223;-70
2022/01/30 07:33:17;;;;;;;17.67;3.67;;;6.10;99.90;;;;;;4989048;28;20199;-74
2022/01/30 07:35:45;;;;;;;14.87;3.67;;;6.10;99.90;;;;;;4990123;28;20206;-73
2022/01/30 07:38:13;;;;;;;14.60;4.03;;;6.20;99.90;;;;;;4991619;28;20326;-74
2022/01/30 07:40:40;;;;;;;16.43;4.63;;;6.10;99.90;;;;;;4996624;28;20226;-74
2022/01/30 07:43:08;;;;;;;14.00;3.53;;;6.20;99.90;;;;;;4991224;28;20222;-74
2022/01/30 07:45:35;;;;;;;20.40;4.43;;;6.20;99.90;;;;;;5002192;28;20197;-74
2022/01/30 07:48:05;;;;;;;18.43;4.50;;;6.20;99.90;;;;;;4996046;28;20222;-74
2022/01/30 07:50:32;;;;;;;14.67;4.00;;;6.10;99.90;;;;;;4992531;28;20699;-74
2022/01/30 07:53:05;;;;;;;15.70;4.30;;;6.20;99.90;;;;;;4993478;28;20184;-72
2022/01/30 07:55:33;;;;;;;16.17;4.13;;;6.10;99.90;;;;;;4988231;28;20567;-74
2022/01/30 07:58:00;;;;;;;20.63;4.50;;;6.00;99.90;;;;;;4990539;28;20202;-75
2022/01/30 08:00:30;;;;;;;15.97;3.90;;;6.30;99.90;;;;;;4997804;28;20223;-74
2022/01/30 08:02:58;;;;;;;22.67;5.40;;;6.20;99.90;;;;;;4984488;28;20198;-74
2022/01/30 08:05:26;;;;;;;16.17;4.97;;;6.10;99.90;;;;;;5000782;28;20206;-74
2022/01/30 08:07:54;;;;;;;20.13;4.63;;;6.10;99.90;;;;;;4993367;28;20222;-73
2022/01/30 08:10:21;;;;;;;17.70;3.90;;;6.00;99.90;;;;;;4993280;28;20218;-74
2022/01/30 08:12:49;;;;;;;9.37;3.77;;;6.00;99.90;;;;;;4994116;28;20209;-74
2022/01/30 08:15:16;;;;;;;18.13;4.47;;;5.90;99.90;;;;;;4993958;28;20203;-74
2022/01/30 08:17:44;;;;;;;15.20;4.20;;;6.10;99.90;;;;;;4983899;28;20215;-74
2022/01/30 08:20:11;;;;;;;16.23;3.97;;;6.10;99.90;;;;;;4994668;28;20226;-74
2022/01/30 08:22:51;;;;;;;14.73;4.03;;;6.20;99.90;;;;;;5000485;28;20199;-74
2022/01/30 08:25:19;;;;;;;16.70;3.77;;;6.30;99.90;;;;;;4993374;28;20210;-74
2022/01/30 08:27:49;;;;;;;16.50;4.17;;;6.40;99.90;;;;;;4993250;28;20203;-74
2022/01/30 08:30:17;;;;;;;14.10;3.83;;;6.30;99.90;;;;;;4990011;28;20226;-74
2022/01/30 08:32:46;;;;;;;15.50;3.80;;;6.30;99.90;;;;;;4996715;28;20207;-74
2022/01/30 08:35:16;;;;;;;15.30;4.53;;;6.20;99.90;;;;;;5009629;28;20215;-74
2022/01/30 08:37:44;;;;;;;19.87;3.93;;;6.20;99.90;;;;;;4993672;28;20204;-73
2022/01/30 08:40:15;;;;;;;12.17;3.97;;;6.20;99.90;;;;;;4992523;28;20230;-74
2022/01/30 08:42:43;;;;;;;19.00;5.13;;;6.20;99.90;;;;;;4994197;28;20210;-74
2022/01/30 08:45:12;;;;;;;22.30;4.73;;;6.30;99.90;;;;;;4992812;28;20210;-74
2022/01/30 08:47:41;;;;;;;15.53;3.80;;;6.30;99.90;;;;;;4993160;28;20669;-73
2022/01/30 08:50:09;;;;;;;13.03;4.17;;;6.30;99.90;;;;;;4991923;28;20217;-74
2022/01/30 08:52:37;;;;;;;14.67;3.47;;;6.30;99.90;;;;;;4992586;28;20202;-74
2022/01/30 08:55:06;;;;;;;19.67;3.77;;;6.40;99.90;;;;;;4992201;28;20206;-74
2022/01/30 08:57:35;;;;;;;15.50;4.57;;;6.40;99.90;;;;;;4991422;28;20198;-74
2022/01/30 09:00:05;;;;;;;18.53;4.63;;;6.50;99.90;;;;;;4993140;28;20235;-74
2022/01/30 09:02:33;;;;;;;16.67;3.90;;;6.50;99.90;;;;;;4991029;28;20210;-73
2022/01/30 09:05:01;;;;;;;11.10;3.40;;;6.50;99.90;;;;;;4990766;28;20262;-74
2022/01/30 09:07:28;;;;;;;12.97;4.77;;;6.50;99.90;;;;;;4991550;28;20208;-74
2022/01/30 09:09:56;;;;;;;16.23;5.00;;;6.50;99.90;;;;;;4991500;28;20220;-74
2022/01/30 09:12:24;;;;;;;13.10;4.00;;;6.60;99.90;;;;;;4991133;28;20217;-74
2022/01/30 09:14:54;;;;;;;14.40;4.53;;;6.60;99.90;;;;;;4991116;28;20665;-74
2022/01/30 09:17:22;;;;;;;20.43;5.67;;;6.50;99.90;;;;;;4990265;28;20562;-73
2022/01/30 09:19:53;;;;;;;16.53;4.63;;;6.60;99.90;;;;;;4991567;28;20227;-73
2022/01/30 09:22:21;;;;;;;20.73;4.83;;;6.60;99.90;;;;;;4990338;28;20541;-73
2022/01/30 09:24:49;;;;;;;22.70;5.50;;;6.60;99.90;;;;;;4990538;28;20202;-74
2022/01/30 09:27:17;;;;;;;16.43;4.80;;;6.60;99.90;;;;;;4990553;28;20191;-74
2022/01/30 09:29:46;;;;;;;19.10;4.60;;;6.70;99.90;;;;;;5005553;28;20223;-74
2022/01/30 09:32:15;;;;;;;17.13;5.07;;;6.50;99.90;;;;;;4992165;28;20204;-74
2022/01/30 09:34:42;;;;;;;19.03;4.50;;;6.50;99.90;;;;;;4990623;28;20207;-74
2022/01/30 09:37:10;;;;;;;12.83;3.93;;;6.50;99.90;;;;;;4990660;28;20283;-74
2022/01/30 09:39:38;;;;;;;19.50;5.17;;;6.60;99.90;;;;;;4996623;28;20214;-74
2022/01/30 09:42:07;;;;;;;17.97;5.10;;;6.60;99.90;;;;;;4991934;28;20200;-74
2022/01/30 09:44:40;;;;;;;18.97;4.73;;;6.70;99.90;;;;;;4986875;28;20201;-74
2022/01/30 09:47:14;;;;;;;21.13;4.93;;;6.70;99.90;;;;;;4992472;28;20777;-74
2022/01/30 09:49:46;;;;;;;15.93;3.97;;;6.70;99.90;;;;;;5000900;28;20213;-74
2022/01/30 09:52:14;;;;;;;17.97;3.90;;;6.70;99.90;;;;;;4991404;28;20198;-74
2022/01/30 09:54:41;;;;;;;14.03;4.20;;;6.70;99.90;;;;;;4997812;28;20198;-74
2022/01/30 09:57:09;;;;;;;17.87;5.07;;;6.60;99.90;;;;;;4988476;28;20563;-75
2022/01/30 09:59:36;;;;;;;17.37;5.13;;;6.70;99.90;;;;;;4994769;28;20236;-74
2022/01/30 10:02:05;;;;;;;15.80;4.97;;;6.70;99.90;;;;;;4992565;28;20203;-74
2022/01/30 10:04:38;;;;;;;19.50;4.17;;;6.90;99.90;;;;;;4995092;28;20204;-74
2022/01/30 10:07:13;;;;;;;21.63;4.97;;;6.90;99.90;;;;;;4985211;28;20208;-74
2022/01/30 10:09:45;;;;;;;17.93;5.00;;;7.00;99.90;;;;;;4994856;28;20225;-74
2022/01/30 10:12:56;;;;;;;13.57;4.33;;;7.20;99.90;;;;;;4995474;28;20206;-74
2022/01/30 10:15:23;;;;;;;17.27;5.63;;;7.20;99.90;;;;;;4994487;28;20204;-75
2022/01/30 10:18:04;;;;;;;23.63;5.33;;;7.20;99.90;;;;;;4990529;28;20208;-74
2022/01/30 10:20:37;;;;;;;25.60;5.20;;;7.20;99.90;;;;;;4990820;28;20364;-74
2022/01/30 10:23:11;;;;;;;20.53;5.10;;;7.20;99.90;;;;;;4992223;28;20204;-75
2022/01/30 10:25:51;;;;;;;19.90;4.57;;;7.10;99.90;;;;;;4996893;28;20199;-74
2022/01/30 10:28:20;;;;;;;17.50;5.50;;;7.00;99.90;;;;;;5007767;28;20202;-73
2022/01/30 10:30:49;;;;;;;15.57;4.83;;;7.00;99.90;;;;;;4991002;28;20230;-73
2022/01/30 10:33:19;;;;;;;16.80;4.60;;;7.20;99.90;;;;;;4990848;28;20211;-73
2022/01/30 10:35:50;;;;;;;19.63;4.63;;;7.20;99.90;;;;;;4991608;28;20202;-74
2022/01/30 10:38:27;;;;;;;18.40;4.10;;;7.30;99.90;;;;;;4991867;28;20199;-73
2022/01/30 10:40:57;;;;;;;17.03;5.50;;;7.40;99.90;;;;;;5009056;28;20226;-73
2022/01/30 10:43:48;;;;;;;29.47;5.40;;;7.40;99.90;;;;;;4994013;28;20223;-74
2022/01/30 10:46:20;;;;;;;16.87;5.40;;;7.40;99.90;;;;;;4999256;28;20667;-74
2022/01/30 10:48:52;;;;;;;22.23;5.03;;;7.70;99.90;;;;;;4994301;28;20200;-75
2022/01/30 10:51:20;;;;;;;22.67;5.20;;;7.70;99.90;;;;;;4995113;28;20195;-75
2022/01/30 10:53:51;;;;;;;18.13;4.83;;;7.60;99.90;;;;;;5001372;28;20199;-75
2022/01/30 10:56:42;;;;;;;19.43;4.43;;;7.70;99.90;;;;;;4994208;28;20566;-75
2022/01/30 10:59:16;;;;;;;21.13;5.23;;;7.90;99.90;;;;;;5001636;28;20231;-76
2022/01/30 11:01:44;;;;;;;19.97;4.83;;;8.10;99.90;;;;;;4999307;28;20214;-74
2022/01/30 11:04:22;;;;;;;17.77;5.40;;;8.10;99.20;;;;;;5011223;28;20199;-74
2022/01/30 11:06:50;;;;;;;22.23;5.90;;;8.30;98.50;;;;;;4995905;28;20208;-74
2022/01/30 11:09:23;;;;;;;21.93;5.27;;;8.30;98.10;;;;;;4991157;28;20231;-74
2022/01/30 11:12:04;;;;;;;21.03;5.97;;;8.30;97.90;;;;;;4990961;28;20208;-74
2022/01/30 11:15:05;;;;;;;23.83;5.63;;;8.40;97.50;;;;;;4984004;28;20193;-73
2022/01/30 11:17:32;;;;;;;21.13;5.60;;;8.30;96.50;;;;;;4993449;28;20208;-75
2022/01/30 11:20:14;;;;;;;25.17;5.80;;;8.20;96.70;;;;;;4989423;28;20216;-74
2022/01/30 11:22:45;;;;;;;16.17;5.50;;;8.20;96.70;;;;;;5013211;28;20661;-75
2022/01/30 11:25:13;;;;;;;24.33;5.20;;;8.00;96.70;;;;;;5008500;28;20203;-75
2022/01/30 11:27:42;;;;;;;16.00;4.93;;;7.90;96.00;;;;;;4993035;28;20207;-75
2022/01/30 11:30:11;;;;;;;22.63;6.00;;;7.80;96.00;;;;;;4984045;28;20690;-74
2022/01/30 11:32:40;;;;;;;22.93;5.07;;;7.90;96.20;;;;;;5001889;28;20200;-75
2022/01/30 11:35:08;;;;;;;26.03;6.10;;;8.00;96.30;;;;;;4997533;28;20209;-74
2022/01/30 11:37:40;;;;;;;22.37;5.53;;;7.80;96.00;;;;;;4989548;28;20220;-74
2022/01/30 11:40:13;;;;;;;20.40;6.27;;;7.90;96.20;;;;;;4989177;28;20220;-75
2022/01/30 11:42:44;;;;;;;26.33;7.00;;;7.90;95.70;;;;;;5004397;28;20215;-74
2022/01/30 11:45:17;;;;;;;19.53;6.07;;;7.80;95.90;;;;;;4996217;28;20204;-74
2022/01/30 11:47:46;;;;;;;19.27;5.07;;;8.00;95.80;;;;;;4994258;28;20220;-75
2022/01/30 11:50:22;;;;;;;18.40;5.47;;;7.90;96.40;;;;;;4991797;28;20224;-74
2022/01/30 11:52:58;;;;;;;22.77;4.77;;;7.80;96.10;;;;;;4984770;28;20215;-75
2022/01/30 11:56:04;;;;;;;17.43;6.50;;;7.80;96.30;;;;;;5005396;28;20242;-74
2022/01/30 11:58:54;;;;;;;25.73;5.47;;;7.70;96.70;;;;;;4984017;28;20206;-74
2022/01/30 12:01:37;;;;;;;22.17;5.80;;;7.90;96.40;;;;;;4987911;28;20738;-74
2022/01/30 12:04:50;;;;;;;21.90;5.10;;;7.80;96.90;;;;;;4987289;28;20193;-74
2022/01/30 12:07:33;;;;;;;25.17;5.47;;;7.90;97.20;;;;;;4983207;28;20272;-74
2022/01/30 12:10:32;;;;;;;18.97;6.07;;;7.80;97.20;;;;;;4989681;28;20219;-74
2022/01/30 12:13:02;;;;;;;25.40;5.27;;;7.80;97.00;;;;;;4959373;28;20231;-74
2022/01/30 12:15:37;;;;;;;20.57;5.73;;;7.90;97.00;;;;;;4988866;28;20185;-74
2022/01/30 12:18:06;;;;;;;17.47;5.20;;;8.10;96.40;;;;;;4988954;28;20197;-74
2022/01/30 12:21:04;;;;;;;21.57;5.37;;;8.30;95.60;;;;;;4988666;28;20224;-74
2022/01/30 12:23:34;;;;;;;24.57;5.93;;;8.30;95.00;;;;;;4992093;28;20674;-74
2022/01/30 12:26:05;;;;;;;23.50;5.03;;;8.30;94.90;;;;;;4991068;28;20207;-74
2022/01/30 12:28:44;;;;;;;21.27;5.73;;;8.20;95.30;;;;;;4988287;28;20200;-74
2022/01/30 12:31:28;;;;;;;30.97;6.57;;;8.20;95.00;;;;;;4987926;28;20203;-74
2022/01/30 12:34:00;;;;;;;21.83;5.53;;;8.00;95.00;;;;;;4993189;28;20192;-74
2022/01/30 12:36:32;;;;;;;19.77;5.47;;;8.00;95.10;;;;;;4991431;28;20201;-74
2022/01/30 12:39:06;;;;;;;27.47;6.37;;;8.30;95.10;;;;;;5003397;28;20230;-74
2022/01/30 12:41:38;;;;;;;24.83;6.30;;;8.60;94.30;;;;;;4986035;28;20678;-74
2022/01/30 12:44:08;;;;;;;18.63;4.70;;;8.60;93.90;;;;;;4989140;28;20206;-74
2022/01/30 12:46:39;;;;;;;21.07;5.73;;;8.50;93.00;;;;;;4993720;28;20695;-74
2022/01/30 12:49:10;;;;;;;18.57;5.37;;;8.30;92.30;;;;;;4991354;28;20227;-74
2022/01/30 12:51:41;;;;;;;16.63;5.20;;;8.30;92.80;;;;;;4989187;28;20557;-74
2022/01/30 12:54:10;;;;;;;23.77;6.33;;;8.30;93.50;;;;;;4984863;28;20204;-74
2022/01/30 12:56:38;;;;;;;24.93;6.20;;;8.20;93.40;;;;;;4986713;28;20219;-74
2022/01/30 12:59:28;;;;;;;25.93;7.37;;;8.00;94.00;;;;;;4992752;28;20239;-74
2022/01/30 13:02:04;;;;;;;25.00;5.70;;;8.00;95.00;;;;;;4989739;28;20228;-74
2022/01/30 13:04:32;;;;;;;18.60;4.87;;;7.90;95.10;;;;;;4986449;28;20195;-74
2022/01/30 13:07:00;;;;;;;19.93;6.00;;;8.00;95.20;;;;;;4987978;28;20200;-74
2022/01/30 13:09:32;;;;;;;20.87;6.40;;;8.10;95.50;;;;;;4989702;28;20220;-73
2022/01/30 13:12:13;;;;;;;17.90;5.27;;;8.00;96.20;;;;;;4982726;28;20543;-76
2022/01/30 13:14:42;;;;;;;21.13;5.90;;;8.30;98.80;;;;;;4992982;28;20211;-76
2022/01/30 13:17:11;;;;;;;25.23;4.97;;;8.50;97.80;;;;;;4989027;28;20216;-76
2022/01/30 13:19:43;;;;;;;18.47;6.27;;;9.00;98.90;;;;;;4990950;28;20234;-75
2022/01/30 13:22:24;;;;;;;21.00;5.83;;;8.90;96.00;;;;;;4987808;28;20216;-74
2022/01/30 13:24:54;;;;;;;22.17;6.10;;;8.40;96.80;;;;;;5004567;28;20207;-73
2022/01/30 13:27:22;;;;;;;19.07;5.00;;;8.20;97.30;;;;;;4989698;28;20674;-74
2022/01/30 13:29:53;;;;;;;23.90;5.63;;;8.20;97.00;;;;;;4990048;28;20224;-74
2022/01/30 13:32:22;;;;;;;23.97;5.07;;;8.00;96.90;;;;;;4989483;28;20200;-74
2022/01/30 13:34:50;;;;;;;25.60;6.70;;;7.90;97.00;;;;;;4994080;28;20206;-74
2022/01/30 13:37:26;;;;;;;26.07;6.50;;;7.80;97.40;;;;;;4991204;28;20590;-74
2022/01/30 13:40:13;;;;;;;19.57;5.50;;;7.80;97.50;;;;;;5002744;28;20231;-74
2022/01/30 13:42:53;;;;;;;20.13;5.67;;;8.00;95.60;;;;;;4939887;28;20311;-74
2022/01/30 13:48:33;;;;;;;21.73;5.83;;;8.00;93.70;;;;;;5006516;28;20200;-74
2022/01/30 13:51:03;;;;;;;23.27;5.47;;;8.00;92.60;;;;;;4987385;28;20196;-75
2022/01/30 13:53:35;;;;;;;21.63;5.20;;;8.00;92.40;;;;;;4991030;28;20199;-75
2022/01/30 13:56:07;;;;;;;20.27;5.00;;;8.20;91.60;;;;;;4991984;28;20526;-74
2022/01/30 13:58:46;;;;;;;20.53;6.13;;;8.40;91.60;;;;;;4990034;28;20195;-74
2022/01/30 14:01:52;;;;;;;22.83;5.17;;;8.70;90.80;;;;;;4989095;28;20212;-74
2022/01/30 14:04:23;;;;;;;20.50;5.60;;;8.80;90.40;;;;;;4986066;28;20237;-74